sensor_id;sensor_type;location;lat;lon;timestamp;P1;durP1;ratioP1;P2;durP2;ratioP2
17784;SDS011;9016;53.582;10.062;2023-05-29T00:00:02;0.20;;;0.20;;
17784;SDS011;9016;53.582;10.062;2023-05-29T00:02:33;0.30;;;0.30;;
17784;SDS011;9016;53.582;10.062;2023-05-29T00:05:03;0.20;;;0.20;;
17784;SDS011;9016;53.582;10.062;2023-05-29T00:07:32;0.20;;;0.20;;
17784;SDS011;9016;53.582;10.062;2023-05-29T00:10:01;0.30;;;0.30;;
17784;SDS011;9016;53.582;10.062;2023-05-29T00:12:29;0.20;;;0.20;;
17784;SDS011;9016;53.582;10.062;2023-05-29T00:14:57;0.20;;;0.20;;
17784;SDS011;9016;53.582;10.062;2023-05-29T00:17:26;0.30;;;0.30;;
17784;SDS011;9016;53.582;10.062;2023-05-29T00:19:55;0.30;;;0.30;;
17784;SDS011;9016;53.582;10.062;2023-05-29T00:22:24;0.30;;;0.30;;
17784;SDS011;9016;53.582;10.062;2023-05-29T00:24:53;0.30;;;0.30;;
17784;SDS011;9016;53.582;10.062;2023-05-29T00:27:22;0.30;;;0.30;;
17784;SDS011;9016;53.582;10.062;2023-05-29T00:29:50;0.20;;;0.20;;
17784;SDS011;9016;53.582;10.062;2023-05-29T00:32:20;0.30;;;0.30;;
17784;SDS011;9016;53.582;10.062;2023-05-29T00:34:49;0.27;;;0.27;;
17784;SDS011;9016;53.582;10.062;2023-05-29T00:37:17;0.30;;;0.30;;
17784;SDS011;9016;53.582;10.062;2023-05-29T00:39:49;0.20;;;0.20;;
17784;SDS011;9016;53.582;10.062;2023-05-29T00:42:17;0.20;;;0.20;;
17784;SDS011;9016;53.582;10.062;2023-05-29T00:44:45;0.20;;;0.20;;
17784;SDS011;9016;53.582;10.062;2023-05-29T00:47:13;0.20;;;0.20;;
17784;SDS011;9016;53.582;10.062;2023-05-29T00:49:46;0.30;;;0.30;;
17784;SDS011;9016;53.582;10.062;2023-05-29T00:52:17;0.30;;;0.30;;
17784;SDS011;9016;53.582;10.062;2023-05-29T00:54:50;0.23;;;0.23;;
17784;SDS011;9016;53.582;10.062;2023-05-29T00:57:20;0.20;;;0.20;;
17784;SDS011;9016;53.582;10.062;2023-05-29T00:59:50;0.20;;;0.20;;
17784;SDS011;9016;53.582;10.062;2023-05-29T01:02:18;0.27;;;0.27;;
17784;SDS011;9016;53.582;10.062;2023-05-29T01:04:48;0.20;;;0.20;;
17784;SDS011;9016;53.582;10.062;2023-05-29T01:07:21;0.30;;;0.30;;
17784;SDS011;9016;53.582;10.062;2023-05-29T01:09:50;0.20;;;0.20;;
17784;SDS011;9016;53.582;10.062;2023-05-29T01:12:23;0.20;;;0.20;;
17784;SDS011;9016;53.582;10.062;2023-05-29T01:17:58;0.30;;;0.30;;
17784;SDS011;9016;53.582;10.062;2023-05-29T01:20:48;0.20;;;0.20;;
17784;SDS011;9016;53.582;10.062;2023-05-29T01:29:16;0.20;;;0.20;;
17784;SDS011;9016;53.582;10.062;2023-05-29T01:31:47;0.27;;;0.27;;
17784;SDS011;9016;53.582;10.062;2023-05-29T01:34:17;0.20;;;0.20;;
17784;SDS011;9016;53.582;10.062;2023-05-29T01:36:45;0.30;;;0.30;;
17784;SDS011;9016;53.582;10.062;2023-05-29T01:39:14;0.20;;;0.20;;
17784;SDS011;9016;53.582;10.062;2023-05-29T01:41:48;0.20;;;0.20;;
17784;SDS011;9016;53.582;10.062;2023-05-29T01:44:17;0.20;;;0.20;;
17784;SDS011;9016;53.582;10.062;2023-05-29T01:46:48;0.30;;;0.30;;
17784;SDS011;9016;53.582;10.062;2023-05-29T01:49:17;0.27;;;0.27;;
17784;SDS011;9016;53.582;10.062;2023-05-29T01:51:48;0.20;;;0.20;;
17784;SDS011;9016;53.582;10.062;2023-05-29T01:54:16;0.27;;;0.27;;
17784;SDS011;9016;53.582;10.062;2023-05-29T01:56:44;0.20;;;0.20;;
17784;SDS011;9016;53.582;10.062;2023-05-29T01:59:15;0.20;;;0.20;;
17784;SDS011;9016;53.582;10.062;2023-05-29T02:01:44;0.20;;;0.20;;
17784;SDS011;9016;53.582;10.062;2023-05-29T02:04:12;0.20;;;0.20;;
17784;SDS011;9016;53.582;10.062;2023-05-29T02:06:40;0.30;;;0.30;;
17784;SDS011;9016;53.582;10.062;2023-05-29T02:09:09;0.20;;;0.20;;
17784;SDS011;9016;53.582;10.062;2023-05-29T02:11:38;0.20;;;0.20;;
17784;SDS011;9016;53.582;10.062;2023-05-29T02:14:12;0.20;;;0.20;;
17784;SDS011;9016;53.582;10.062;2023-05-29T02:16:43;0.27;;;0.27;;
17784;SDS011;9016;53.582;10.062;2023-05-29T02:19:11;0.20;;;0.20;;
17784;SDS011;9016;53.582;10.062;2023-05-29T02:21:40;0.20;;;0.20;;
17784;SDS011;9016;53.582;10.062;2023-05-29T02:24:08;0.20;;;0.20;;
17784;SDS011;9016;53.582;10.062;2023-05-29T02:26:36;0.20;;;0.20;;
17784;SDS011;9016;53.582;10.062;2023-05-29T02:29:04;0.20;;;0.20;;
17784;SDS011;9016;53.582;10.062;2023-05-29T02:31:33;0.20;;;0.20;;
17784;SDS011;9016;53.582;10.062;2023-05-29T02:34:02;0.20;;;0.20;;
17784;SDS011;9016;53.582;10.062;2023-05-29T02:36:30;0.20;;;0.20;;
17784;SDS011;9016;53.582;10.062;2023-05-29T02:38:58;0.20;;;0.20;;
17784;SDS011;9016;53.582;10.062;2023-05-29T02:41:27;0.20;;;0.20;;
17784;SDS011;9016;53.582;10.062;2023-05-29T02:43:55;0.20;;;0.20;;
17784;SDS011;9016;53.582;10.062;2023-05-29T02:46:22;0.20;;;0.20;;
17784;SDS011;9016;53.582;10.062;2023-05-29T02:48:51;0.20;;;0.20;;
17784;SDS011;9016;53.582;10.062;2023-05-29T02:51:20;0.20;;;0.20;;
17784;SDS011;9016;53.582;10.062;2023-05-29T02:53:48;0.20;;;0.20;;
17784;SDS011;9016;53.582;10.062;2023-05-29T02:56:16;0.20;;;0.20;;
17784;SDS011;9016;53.582;10.062;2023-05-29T02:58:44;0.20;;;0.20;;
17784;SDS011;9016;53.582;10.062;2023-05-29T03:01:13;0.20;;;0.20;;
17784;SDS011;9016;53.582;10.062;2023-05-29T03:03:41;0.20;;;0.20;;
17784;SDS011;9016;53.582;10.062;2023-05-29T03:06:09;0.27;;;0.27;;
17784;SDS011;9016;53.582;10.062;2023-05-29T03:08:40;0.20;;;0.20;;
17784;SDS011;9016;53.582;10.062;2023-05-29T03:11:11;0.20;;;0.20;;
17784;SDS011;9016;53.582;10.062;2023-05-29T03:13:41;0.20;;;0.20;;
17784;SDS011;9016;53.582;10.062;2023-05-29T03:16:09;0.23;;;0.23;;
17784;SDS011;9016;53.582;10.062;2023-05-29T03:18:38;0.30;;;0.30;;
17784;SDS011;9016;53.582;10.062;2023-05-29T03:21:06;0.20;;;0.20;;
17784;SDS011;9016;53.582;10.062;2023-05-29T03:23:34;0.20;;;0.20;;
17784;SDS011;9016;53.582;10.062;2023-05-29T03:26:03;0.27;;;0.27;;
17784;SDS011;9016;53.582;10.062;2023-05-29T03:28:32;0.20;;;0.20;;
17784;SDS011;9016;53.582;10.062;2023-05-29T03:31:00;0.20;;;0.20;;
17784;SDS011;9016;53.582;10.062;2023-05-29T03:33:29;0.30;;;0.30;;
17784;SDS011;9016;53.582;10.062;2023-05-29T03:35:57;0.20;;;0.20;;
17784;SDS011;9016;53.582;10.062;2023-05-29T03:38:25;0.27;;;0.27;;
17784;SDS011;9016;53.582;10.062;2023-05-29T03:40:55;0.30;;;0.30;;
17784;SDS011;9016;53.582;10.062;2023-05-29T03:43:24;0.20;;;0.20;;
17784;SDS011;9016;53.582;10.062;2023-05-29T03:45:52;0.20;;;0.20;;
17784;SDS011;9016;53.582;10.062;2023-05-29T03:48:21;0.27;;;0.27;;
17784;SDS011;9016;53.582;10.062;2023-05-29T03:50:49;0.23;;;0.23;;
17784;SDS011;9016;53.582;10.062;2023-05-29T03:53:17;0.20;;;0.20;;
17784;SDS011;9016;53.582;10.062;2023-05-29T03:55:45;0.20;;;0.20;;
17784;SDS011;9016;53.582;10.062;2023-05-29T03:58:13;0.20;;;0.20;;
17784;SDS011;9016;53.582;10.062;2023-05-29T04:00:43;0.30;;;0.30;;
17784;SDS011;9016;53.582;10.062;2023-05-29T04:03:11;0.30;;;0.30;;
17784;SDS011;9016;53.582;10.062;2023-05-29T04:05:40;0.20;;;0.20;;
17784;SDS011;9016;53.582;10.062;2023-05-29T04:08:08;0.20;;;0.20;;
17784;SDS011;9016;53.582;10.062;2023-05-29T04:10:41;0.30;;;0.30;;
17784;SDS011;9016;53.582;10.062;2023-05-29T04:13:10;0.20;;;0.20;;
17784;SDS011;9016;53.582;10.062;2023-05-29T04:15:38;0.20;;;0.20;;
17784;SDS011;9016;53.582;10.062;2023-05-29T04:18:07;0.20;;;0.20;;
17784;SDS011;9016;53.582;10.062;2023-05-29T04:20:35;0.23;;;0.23;;
17784;SDS011;9016;53.582;10.062;2023-05-29T04:23:03;0.20;;;0.20;;
17784;SDS011;9016;53.582;10.062;2023-05-29T04:25:31;0.20;;;0.20;;
17784;SDS011;9016;53.582;10.062;2023-05-29T04:28:00;0.20;;;0.20;;
17784;SDS011;9016;53.582;10.062;2023-05-29T04:30:30;0.40;;;0.40;;
17784;SDS011;9016;53.582;10.062;2023-05-29T04:33:00;0.20;;;0.20;;
17784;SDS011;9016;53.582;10.062;2023-05-29T04:35:30;0.20;;;0.20;;
17784;SDS011;9016;53.582;10.062;2023-05-29T04:37:58;0.20;;;0.20;;
17784;SDS011;9016;53.582;10.062;2023-05-29T04:40:26;0.20;;;0.20;;
17784;SDS011;9016;53.582;10.062;2023-05-29T04:42:54;0.20;;;0.20;;
17784;SDS011;9016;53.582;10.062;2023-05-29T04:45:22;0.20;;;0.20;;
17784;SDS011;9016;53.582;10.062;2023-05-29T04:47:51;0.20;;;0.20;;
17784;SDS011;9016;53.582;10.062;2023-05-29T04:50:21;0.20;;;0.20;;
17784;SDS011;9016;53.582;10.062;2023-05-29T04:52:53;0.20;;;0.20;;
17784;SDS011;9016;53.582;10.062;2023-05-29T04:55:21;0.20;;;0.20;;
17784;SDS011;9016;53.582;10.062;2023-05-29T04:57:49;0.20;;;0.20;;
17784;SDS011;9016;53.582;10.062;2023-05-29T05:00:18;0.20;;;0.20;;
17784;SDS011;9016;53.582;10.062;2023-05-29T05:02:47;0.23;;;0.23;;
17784;SDS011;9016;53.582;10.062;2023-05-29T05:05:15;0.20;;;0.20;;
17784;SDS011;9016;53.582;10.062;2023-05-29T05:07:43;0.20;;;0.20;;
17784;SDS011;9016;53.582;10.062;2023-05-29T05:10:13;0.20;;;0.20;;
17784;SDS011;9016;53.582;10.062;2023-05-29T05:12:41;0.20;;;0.20;;
17784;SDS011;9016;53.582;10.062;2023-05-29T05:15:09;0.20;;;0.20;;
17784;SDS011;9016;53.582;10.062;2023-05-29T05:17:39;0.20;;;0.20;;
17784;SDS011;9016;53.582;10.062;2023-05-29T05:20:07;0.20;;;0.20;;
17784;SDS011;9016;53.582;10.062;2023-05-29T05:22:38;0.20;;;0.20;;
17784;SDS011;9016;53.582;10.062;2023-05-29T05:25:07;0.20;;;0.20;;
17784;SDS011;9016;53.582;10.062;2023-05-29T05:27:37;0.30;;;0.30;;
17784;SDS011;9016;53.582;10.062;2023-05-29T05:30:05;0.30;;;0.30;;
17784;SDS011;9016;53.582;10.062;2023-05-29T05:32:35;0.30;;;0.30;;
17784;SDS011;9016;53.582;10.062;2023-05-29T05:35:03;0.30;;;0.30;;
17784;SDS011;9016;53.582;10.062;2023-05-29T05:37:31;0.30;;;0.30;;
17784;SDS011;9016;53.582;10.062;2023-05-29T05:39:59;0.30;;;0.30;;
17784;SDS011;9016;53.582;10.062;2023-05-29T05:42:27;0.20;;;0.20;;
17784;SDS011;9016;53.582;10.062;2023-05-29T05:44:57;0.20;;;0.20;;
17784;SDS011;9016;53.582;10.062;2023-05-29T05:47:25;0.27;;;0.27;;
17784;SDS011;9016;53.582;10.062;2023-05-29T05:49:54;0.20;;;0.20;;
17784;SDS011;9016;53.582;10.062;2023-05-29T05:52:23;0.20;;;0.20;;
17784;SDS011;9016;53.582;10.062;2023-05-29T05:54:52;0.37;;;0.37;;
17784;SDS011;9016;53.582;10.062;2023-05-29T05:57:20;0.30;;;0.30;;
17784;SDS011;9016;53.582;10.062;2023-05-29T05:59:48;0.20;;;0.20;;
17784;SDS011;9016;53.582;10.062;2023-05-29T06:02:17;0.20;;;0.20;;
17784;SDS011;9016;53.582;10.062;2023-05-29T06:04:46;0.27;;;0.27;;
17784;SDS011;9016;53.582;10.062;2023-05-29T06:07:15;0.30;;;0.30;;
17784;SDS011;9016;53.582;10.062;2023-05-29T06:09:46;0.30;;;0.30;;
17784;SDS011;9016;53.582;10.062;2023-05-29T06:12:15;0.30;;;0.30;;
17784;SDS011;9016;53.582;10.062;2023-05-29T06:14:43;0.20;;;0.20;;
17784;SDS011;9016;53.582;10.062;2023-05-29T06:17:11;0.30;;;0.30;;
17784;SDS011;9016;53.582;10.062;2023-05-29T06:19:41;0.30;;;0.30;;
17784;SDS011;9016;53.582;10.062;2023-05-29T06:22:10;0.30;;;0.30;;
17784;SDS011;9016;53.582;10.062;2023-05-29T06:24:38;0.20;;;0.20;;
17784;SDS011;9016;53.582;10.062;2023-05-29T06:27:07;0.30;;;0.30;;
17784;SDS011;9016;53.582;10.062;2023-05-29T06:29:35;0.37;;;0.37;;
17784;SDS011;9016;53.582;10.062;2023-05-29T06:32:04;0.50;;;0.50;;
17784;SDS011;9016;53.582;10.062;2023-05-29T06:34:32;0.50;;;0.50;;
17784;SDS011;9016;53.582;10.062;2023-05-29T06:37:02;0.50;;;0.50;;
17784;SDS011;9016;53.582;10.062;2023-05-29T06:39:30;0.50;;;0.50;;
17784;SDS011;9016;53.582;10.062;2023-05-29T06:41:58;0.50;;;0.50;;
17784;SDS011;9016;53.582;10.062;2023-05-29T06:44:27;0.60;;;0.60;;
17784;SDS011;9016;53.582;10.062;2023-05-29T06:46:55;0.50;;;0.50;;
17784;SDS011;9016;53.582;10.062;2023-05-29T06:49:23;0.60;;;0.60;;
17784;SDS011;9016;53.582;10.062;2023-05-29T06:51:51;0.60;;;0.60;;
17784;SDS011;9016;53.582;10.062;2023-05-29T06:54:21;0.57;;;0.57;;
17784;SDS011;9016;53.582;10.062;2023-05-29T06:56:49;0.60;;;0.60;;
17784;SDS011;9016;53.582;10.062;2023-05-29T06:59:34;0.50;;;0.50;;
17784;SDS011;9016;53.582;10.062;2023-05-29T07:02:03;0.60;;;0.60;;
17784;SDS011;9016;53.582;10.062;2023-05-29T07:04:33;0.50;;;0.50;;
17784;SDS011;9016;53.582;10.062;2023-05-29T07:07:01;0.50;;;0.50;;
17784;SDS011;9016;53.582;10.062;2023-05-29T07:09:33;0.60;;;0.60;;
17784;SDS011;9016;53.582;10.062;2023-05-29T07:12:01;0.60;;;0.60;;
17784;SDS011;9016;53.582;10.062;2023-05-29T07:14:29;0.50;;;0.50;;
17784;SDS011;9016;53.582;10.062;2023-05-29T07:16:57;0.50;;;0.50;;
17784;SDS011;9016;53.582;10.062;2023-05-29T07:19:26;0.60;;;0.60;;
17784;SDS011;9016;53.582;10.062;2023-05-29T07:21:55;0.50;;;0.50;;
17784;SDS011;9016;53.582;10.062;2023-05-29T07:24:26;0.52;;;0.52;;
17784;SDS011;9016;53.582;10.062;2023-05-29T07:27:15;0.70;;;0.70;;
17784;SDS011;9016;53.582;10.062;2023-05-29T07:29:43;0.60;;;0.60;;
17784;SDS011;9016;53.582;10.062;2023-05-29T07:32:11;0.60;;;0.60;;
17784;SDS011;9016;53.582;10.062;2023-05-29T07:34:39;0.50;;;0.50;;
17784;SDS011;9016;53.582;10.062;2023-05-29T07:37:07;0.50;;;0.50;;
17784;SDS011;9016;53.582;10.062;2023-05-29T07:39:37;0.60;;;0.60;;
17784;SDS011;9016;53.582;10.062;2023-05-29T07:42:05;0.70;;;0.70;;
17784;SDS011;9016;53.582;10.062;2023-05-29T07:44:34;0.63;;;0.63;;
17784;SDS011;9016;53.582;10.062;2023-05-29T07:47:02;0.70;;;0.70;;
17784;SDS011;9016;53.582;10.062;2023-05-29T07:49:30;0.60;;;0.60;;
17784;SDS011;9016;53.582;10.062;2023-05-29T07:51:59;0.70;;;0.70;;
17784;SDS011;9016;53.582;10.062;2023-05-29T07:54:27;0.60;;;0.60;;
17784;SDS011;9016;53.582;10.062;2023-05-29T07:56:57;0.70;;;0.70;;
17784;SDS011;9016;53.582;10.062;2023-05-29T07:59:25;0.70;;;0.70;;
17784;SDS011;9016;53.582;10.062;2023-05-29T08:01:53;0.60;;;0.60;;
17784;SDS011;9016;53.582;10.062;2023-05-29T08:04:24;0.68;;;0.68;;
17784;SDS011;9016;53.582;10.062;2023-05-29T08:06:52;0.70;;;0.70;;
17784;SDS011;9016;53.582;10.062;2023-05-29T08:09:20;0.70;;;0.70;;
17784;SDS011;9016;53.582;10.062;2023-05-29T08:11:48;0.65;;;0.65;;
17784;SDS011;9016;53.582;10.062;2023-05-29T08:14:18;0.60;;;0.60;;
17784;SDS011;9016;53.582;10.062;2023-05-29T08:16:46;0.60;;;0.60;;
17784;SDS011;9016;53.582;10.062;2023-05-29T08:19:15;0.70;;;0.70;;
17784;SDS011;9016;53.582;10.062;2023-05-29T08:21:43;0.60;;;0.60;;
17784;SDS011;9016;53.582;10.062;2023-05-29T08:24:12;0.70;;;0.70;;
17784;SDS011;9016;53.582;10.062;2023-05-29T08:26:40;0.60;;;0.60;;
17784;SDS011;9016;53.582;10.062;2023-05-29T08:29:10;0.70;;;0.70;;
17784;SDS011;9016;53.582;10.062;2023-05-29T08:31:40;0.60;;;0.60;;
17784;SDS011;9016;53.582;10.062;2023-05-29T08:34:09;0.70;;;0.70;;
17784;SDS011;9016;53.582;10.062;2023-05-29T08:36:37;0.70;;;0.70;;
17784;SDS011;9016;53.582;10.062;2023-05-29T08:39:07;0.68;;;0.68;;
17784;SDS011;9016;53.582;10.062;2023-05-29T08:41:38;0.60;;;0.60;;
17784;SDS011;9016;53.582;10.062;2023-05-29T08:44:13;0.70;;;0.70;;
17784;SDS011;9016;53.582;10.062;2023-05-29T08:46:43;0.70;;;0.70;;
17784;SDS011;9016;53.582;10.062;2023-05-29T08:49:13;0.70;;;0.70;;
17784;SDS011;9016;53.582;10.062;2023-05-29T08:51:49;0.70;;;0.70;;
17784;SDS011;9016;53.582;10.062;2023-05-29T08:54:22;0.70;;;0.70;;
17784;SDS011;9016;53.582;10.062;2023-05-29T08:56:51;0.63;;;0.63;;
17784;SDS011;9016;53.582;10.062;2023-05-29T08:59:20;0.70;;;0.70;;
17784;SDS011;9016;53.582;10.062;2023-05-29T09:01:50;0.70;;;0.70;;
17784;SDS011;9016;53.582;10.062;2023-05-29T09:04:18;0.70;;;0.70;;
17784;SDS011;9016;53.582;10.062;2023-05-29T09:06:50;0.70;;;0.70;;
17784;SDS011;9016;53.582;10.062;2023-05-29T09:09:22;0.70;;;0.70;;
17784;SDS011;9016;53.582;10.062;2023-05-29T09:11:50;0.70;;;0.70;;
17784;SDS011;9016;53.582;10.062;2023-05-29T09:14:31;0.70;;;0.70;;
17784;SDS011;9016;53.582;10.062;2023-05-29T09:17:03;0.70;;;0.70;;
17784;SDS011;9016;53.582;10.062;2023-05-29T09:19:33;0.80;;;0.80;;
17784;SDS011;9016;53.582;10.062;2023-05-29T09:22:02;0.75;;;0.75;;
17784;SDS011;9016;53.582;10.062;2023-05-29T09:24:35;0.70;;;0.70;;
17784;SDS011;9016;53.582;10.062;2023-05-29T09:27:04;0.70;;;0.70;;
17784;SDS011;9016;53.582;10.062;2023-05-29T09:29:37;0.70;;;0.70;;
17784;SDS011;9016;53.582;10.062;2023-05-29T09:32:08;0.70;;;0.70;;
17784;SDS011;9016;53.582;10.062;2023-05-29T09:34:36;0.80;;;0.80;;
17784;SDS011;9016;53.582;10.062;2023-05-29T09:37:07;0.70;;;0.70;;
17784;SDS011;9016;53.582;10.062;2023-05-29T09:39:46;0.60;;;0.60;;
17784;SDS011;9016;53.582;10.062;2023-05-29T09:42:15;0.50;;;0.50;;
17784;SDS011;9016;53.582;10.062;2023-05-29T09:44:44;0.50;;;0.50;;
17784;SDS011;9016;53.582;10.062;2023-05-29T09:47:16;0.45;;;0.45;;
17784;SDS011;9016;53.582;10.062;2023-05-29T09:49:45;0.50;;;0.50;;
17784;SDS011;9016;53.582;10.062;2023-05-29T09:52:14;0.50;;;0.50;;
17784;SDS011;9016;53.582;10.062;2023-05-29T09:54:43;0.30;;;0.30;;
17784;SDS011;9016;53.582;10.062;2023-05-29T09:57:14;0.40;;;0.40;;
17784;SDS011;9016;53.582;10.062;2023-05-29T09:59:44;0.30;;;0.30;;
17784;SDS011;9016;53.582;10.062;2023-05-29T10:02:21;0.30;;;0.30;;
17784;SDS011;9016;53.582;10.062;2023-05-29T10:04:52;0.30;;;0.30;;
17784;SDS011;9016;53.582;10.062;2023-05-29T10:07:22;0.40;;;0.40;;
17784;SDS011;9016;53.582;10.062;2023-05-29T10:09:59;0.30;;;0.30;;
17784;SDS011;9016;53.582;10.062;2023-05-29T10:12:31;0.30;;;0.30;;
17784;SDS011;9016;53.582;10.062;2023-05-29T10:15:06;0.40;;;0.40;;
17784;SDS011;9016;53.582;10.062;2023-05-29T10:17:59;0.30;;;0.30;;
17784;SDS011;9016;53.582;10.062;2023-05-29T10:20:31;0.30;;;0.30;;
17784;SDS011;9016;53.582;10.062;2023-05-29T10:23:02;0.38;;;0.38;;
17784;SDS011;9016;53.582;10.062;2023-05-29T10:25:32;0.30;;;0.30;;
17784;SDS011;9016;53.582;10.062;2023-05-29T10:28:01;0.30;;;0.30;;
17784;SDS011;9016;53.582;10.062;2023-05-29T10:30:34;0.30;;;0.30;;
17784;SDS011;9016;53.582;10.062;2023-05-29T10:33:13;0.30;;;0.30;;
17784;SDS011;9016;53.582;10.062;2023-05-29T10:36:00;0.30;;;0.30;;
17784;SDS011;9016;53.582;10.062;2023-05-29T10:38:35;0.30;;;0.30;;
17784;SDS011;9016;53.582;10.062;2023-05-29T10:47:13;0.30;;;0.30;;
17784;SDS011;9016;53.582;10.062;2023-05-29T10:49:53;0.40;;;0.40;;
17784;SDS011;9016;53.582;10.062;2023-05-29T10:52:30;0.30;;;0.30;;
17784;SDS011;9016;53.582;10.062;2023-05-29T10:54:59;0.30;;;0.30;;
17784;SDS011;9016;53.582;10.062;2023-05-29T10:57:30;0.40;;;0.40;;
17784;SDS011;9016;53.582;10.062;2023-05-29T11:00:04;0.30;;;0.30;;
17784;SDS011;9016;53.582;10.062;2023-05-29T11:02:40;0.30;;;0.30;;
17784;SDS011;9016;53.582;10.062;2023-05-29T11:07:56;0.30;;;0.30;;
17784;SDS011;9016;53.582;10.062;2023-05-29T11:13:25;0.30;;;0.30;;
17784;SDS011;9016;53.582;10.062;2023-05-29T11:16:05;0.30;;;0.30;;
17784;SDS011;9016;53.582;10.062;2023-05-29T11:18:40;0.30;;;0.30;;
17784;SDS011;9016;53.582;10.062;2023-05-29T11:21:33;0.30;;;0.30;;
17784;SDS011;9016;53.582;10.062;2023-05-29T11:24:06;0.30;;;0.30;;
17784;SDS011;9016;53.582;10.062;2023-05-29T11:26:36;0.30;;;0.30;;
17784;SDS011;9016;53.582;10.062;2023-05-29T11:29:06;0.30;;;0.30;;
17784;SDS011;9016;53.582;10.062;2023-05-29T11:31:41;0.30;;;0.30;;
17784;SDS011;9016;53.582;10.062;2023-05-29T11:34:14;0.30;;;0.30;;
17784;SDS011;9016;53.582;10.062;2023-05-29T11:36:44;0.30;;;0.30;;
17784;SDS011;9016;53.582;10.062;2023-05-29T11:39:15;0.30;;;0.30;;
17784;SDS011;9016;53.582;10.062;2023-05-29T11:41:43;0.30;;;0.30;;
17784;SDS011;9016;53.582;10.062;2023-05-29T11:44:13;0.30;;;0.30;;
17784;SDS011;9016;53.582;10.062;2023-05-29T11:46:42;0.30;;;0.30;;
17784;SDS011;9016;53.582;10.062;2023-05-29T11:49:10;0.30;;;0.30;;
17784;SDS011;9016;53.582;10.062;2023-05-29T11:51:41;0.30;;;0.30;;
17784;SDS011;9016;53.582;10.062;2023-05-29T11:54:13;0.30;;;0.30;;
17784;SDS011;9016;53.582;10.062;2023-05-29T11:56:41;0.30;;;0.30;;
17784;SDS011;9016;53.582;10.062;2023-05-29T11:59:10;0.30;;;0.30;;
17784;SDS011;9016;53.582;10.062;2023-05-29T12:01:39;0.30;;;0.30;;
17784;SDS011;9016;53.582;10.062;2023-05-29T12:04:14;0.30;;;0.30;;
17784;SDS011;9016;53.582;10.062;2023-05-29T12:06:43;0.30;;;0.30;;
17784;SDS011;9016;53.582;10.062;2023-05-29T12:09:24;0.40;;;0.40;;
17784;SDS011;9016;53.582;10.062;2023-05-29T12:11:53;0.30;;;0.30;;
17784;SDS011;9016;53.582;10.062;2023-05-29T12:14:24;0.30;;;0.30;;
17784;SDS011;9016;53.582;10.062;2023-05-29T12:16:53;0.30;;;0.30;;
17784;SDS011;9016;53.582;10.062;2023-05-29T12:19:21;0.30;;;0.30;;
17784;SDS011;9016;53.582;10.062;2023-05-29T12:21:49;0.30;;;0.30;;
17784;SDS011;9016;53.582;10.062;2023-05-29T12:24:18;0.30;;;0.30;;
17784;SDS011;9016;53.582;10.062;2023-05-29T12:26:53;0.30;;;0.30;;
17784;SDS011;9016;53.582;10.062;2023-05-29T12:29:29;0.30;;;0.30;;
17784;SDS011;9016;53.582;10.062;2023-05-29T12:32:00;0.30;;;0.30;;
17784;SDS011;9016;53.582;10.062;2023-05-29T12:34:33;0.30;;;0.30;;
17784;SDS011;9016;53.582;10.062;2023-05-29T12:37:05;0.30;;;0.30;;
17784;SDS011;9016;53.582;10.062;2023-05-29T12:39:39;0.30;;;0.30;;
17784;SDS011;9016;53.582;10.062;2023-05-29T12:42:09;0.30;;;0.30;;
17784;SDS011;9016;53.582;10.062;2023-05-29T12:44:43;0.30;;;0.30;;
17784;SDS011;9016;53.582;10.062;2023-05-29T12:47:13;0.30;;;0.30;;
17784;SDS011;9016;53.582;10.062;2023-05-29T12:49:42;0.38;;;0.38;;
17784;SDS011;9016;53.582;10.062;2023-05-29T12:52:11;0.30;;;0.30;;
17784;SDS011;9016;53.582;10.062;2023-05-29T12:54:42;0.30;;;0.30;;
17784;SDS011;9016;53.582;10.062;2023-05-29T12:57:14;0.30;;;0.30;;
17784;SDS011;9016;53.582;10.062;2023-05-29T12:59:42;0.32;;;0.32;;
17784;SDS011;9016;53.582;10.062;2023-05-29T13:02:11;0.30;;;0.30;;
17784;SDS011;9016;53.582;10.062;2023-05-29T13:04:39;0.30;;;0.30;;
17784;SDS011;9016;53.582;10.062;2023-05-29T13:07:07;0.30;;;0.30;;
17784;SDS011;9016;53.582;10.062;2023-05-29T13:09:36;0.30;;;0.30;;
17784;SDS011;9016;53.582;10.062;2023-05-29T13:12:06;0.30;;;0.30;;
17784;SDS011;9016;53.582;10.062;2023-05-29T13:14:35;0.30;;;0.30;;
17784;SDS011;9016;53.582;10.062;2023-05-29T13:17:05;0.30;;;0.30;;
17784;SDS011;9016;53.582;10.062;2023-05-29T13:19:33;0.30;;;0.30;;
17784;SDS011;9016;53.582;10.062;2023-05-29T13:22:02;0.32;;;0.32;;
17784;SDS011;9016;53.582;10.062;2023-05-29T13:24:30;0.30;;;0.30;;
17784;SDS011;9016;53.582;10.062;2023-05-29T13:26:58;0.30;;;0.30;;
17784;SDS011;9016;53.582;10.062;2023-05-29T13:29:27;0.30;;;0.30;;
17784;SDS011;9016;53.582;10.062;2023-05-29T13:31:56;0.30;;;0.30;;
17784;SDS011;9016;53.582;10.062;2023-05-29T13:34:24;0.30;;;0.30;;
17784;SDS011;9016;53.582;10.062;2023-05-29T13:36:55;0.30;;;0.30;;
17784;SDS011;9016;53.582;10.062;2023-05-29T13:39:23;0.30;;;0.30;;
17784;SDS011;9016;53.582;10.062;2023-05-29T13:41:51;0.30;;;0.30;;
17784;SDS011;9016;53.582;10.062;2023-05-29T13:44:20;0.30;;;0.30;;
17784;SDS011;9016;53.582;10.062;2023-05-29T13:46:47;0.30;;;0.30;;
17784;SDS011;9016;53.582;10.062;2023-05-29T13:49:18;0.30;;;0.30;;
17784;SDS011;9016;53.582;10.062;2023-05-29T13:51:46;0.30;;;0.30;;
17784;SDS011;9016;53.582;10.062;2023-05-29T13:54:15;0.30;;;0.30;;
17784;SDS011;9016;53.582;10.062;2023-05-29T13:56:43;0.30;;;0.30;;
17784;SDS011;9016;53.582;10.062;2023-05-29T13:59:13;0.30;;;0.30;;
17784;SDS011;9016;53.582;10.062;2023-05-29T14:01:45;0.30;;;0.30;;
17784;SDS011;9016;53.582;10.062;2023-05-29T14:04:13;0.30;;;0.30;;
17784;SDS011;9016;53.582;10.062;2023-05-29T14:06:45;0.30;;;0.30;;
17784;SDS011;9016;53.582;10.062;2023-05-29T14:09:13;0.30;;;0.30;;
17784;SDS011;9016;53.582;10.062;2023-05-29T14:11:41;0.30;;;0.30;;
17784;SDS011;9016;53.582;10.062;2023-05-29T14:14:09;0.30;;;0.30;;
17784;SDS011;9016;53.582;10.062;2023-05-29T14:16:38;0.30;;;0.30;;
17784;SDS011;9016;53.582;10.062;2023-05-29T14:19:06;0.30;;;0.30;;
17784;SDS011;9016;53.582;10.062;2023-05-29T14:21:34;0.30;;;0.30;;
17784;SDS011;9016;53.582;10.062;2023-05-29T14:24:05;0.30;;;0.30;;
17784;SDS011;9016;53.582;10.062;2023-05-29T14:26:33;0.30;;;0.30;;
17784;SDS011;9016;53.582;10.062;2023-05-29T14:29:02;0.30;;;0.30;;
17784;SDS011;9016;53.582;10.062;2023-05-29T14:31:40;0.30;;;0.30;;
17784;SDS011;9016;53.582;10.062;2023-05-29T14:34:08;0.28;;;0.28;;
17784;SDS011;9016;53.582;10.062;2023-05-29T14:36:37;0.30;;;0.30;;
17784;SDS011;9016;53.582;10.062;2023-05-29T14:39:08;0.30;;;0.30;;
17784;SDS011;9016;53.582;10.062;2023-05-29T14:41:36;0.30;;;0.30;;
17784;SDS011;9016;53.582;10.062;2023-05-29T14:44:08;0.30;;;0.30;;
17784;SDS011;9016;53.582;10.062;2023-05-29T14:46:37;0.30;;;0.30;;
17784;SDS011;9016;53.582;10.062;2023-05-29T14:49:07;0.30;;;0.30;;
17784;SDS011;9016;53.582;10.062;2023-05-29T14:51:35;0.30;;;0.30;;
17784;SDS011;9016;53.582;10.062;2023-05-29T14:54:05;0.30;;;0.30;;
17784;SDS011;9016;53.582;10.062;2023-05-29T14:56:34;0.30;;;0.30;;
17784;SDS011;9016;53.582;10.062;2023-05-29T14:59:02;0.30;;;0.30;;
17784;SDS011;9016;53.582;10.062;2023-05-29T15:01:33;0.30;;;0.30;;
17784;SDS011;9016;53.582;10.062;2023-05-29T15:04:02;0.30;;;0.30;;
17784;SDS011;9016;53.582;10.062;2023-05-29T15:06:30;0.30;;;0.30;;
17784;SDS011;9016;53.582;10.062;2023-05-29T15:08:59;0.30;;;0.30;;
17784;SDS011;9016;53.582;10.062;2023-05-29T15:11:28;0.30;;;0.30;;
17784;SDS011;9016;53.582;10.062;2023-05-29T15:13:58;0.30;;;0.30;;
17784;SDS011;9016;53.582;10.062;2023-05-29T15:16:26;0.30;;;0.30;;
17784;SDS011;9016;53.582;10.062;2023-05-29T15:18:55;0.30;;;0.30;;
17784;SDS011;9016;53.582;10.062;2023-05-29T15:21:23;0.30;;;0.30;;
17784;SDS011;9016;53.582;10.062;2023-05-29T15:23:51;0.30;;;0.30;;